Dyke, Virginia
Current Conditions -  °F | °C
As of 10:53 AM on Friday 21 Nov 2014 (Local Time) from KCHO Reporting Station
Clear Clear  
Wind Chill: 28°   Ceiling: Unl
Heat Index: 35°   Visibility: 10mi
Dew Point:   Wind: 9mph
Humidity: 31%   Direction: 300°WNW
Pressure: 30.44"   Gusts: NA
Location:  38.22°N, 78.54°W
Report Text: KCHO 211553Z 30008KT 10SM CLR 02/M14 A3044 RMK AO2 SLP310 T00171139
Loading
Personal Weather Stations






























Interactive Weather Map New forecast layout! Learn more

10-Day Weather Forecast

Advertisements
Track Severe Weather on mobile